createdAt,value
2018-09-04T00:00:43.508Z,13.60
2018-09-04T00:03:11.230Z,14.60
2018-09-04T00:05:39.021Z,14.73
2018-09-04T00:08:06.721Z,14.03
2018-09-04T00:10:34.444Z,14.47
2018-09-04T00:13:02.374Z,14.80
2018-09-04T00:15:30.137Z,14.83
2018-09-04T00:17:57.909Z,13.63
2018-09-04T00:20:25.672Z,14.13
2018-09-04T00:22:53.436Z,14.30
2018-09-04T00:25:21.225Z,14.30
2018-09-04T00:27:49.050Z,14.90
2018-09-04T00:30:16.847Z,14.60
2018-09-04T00:32:44.586Z,13.93
2018-09-04T00:35:12.429Z,15.33
2018-09-04T00:37:40.204Z,14.73
2018-09-04T00:40:08.141Z,15.00
2018-09-04T00:42:35.903Z,13.87
2018-09-04T00:45:03.843Z,14.83
2018-09-04T00:47:31.615Z,12.63
2018-09-04T00:49:59.317Z,15.40
2018-09-04T00:52:27.094Z,14.87
2018-09-04T00:54:54.773Z,16.17
2018-09-04T00:57:22.498Z,17.27
2018-09-04T00:59:50.233Z,17.47
2018-09-04T01:02:18.036Z,17.70
2018-09-04T01:04:46.893Z,16.47
2018-09-04T01:07:14.908Z,17.87
2018-09-04T01:09:42.621Z,16.97
2018-09-04T01:12:10.398Z,15.70
2018-09-04T01:14:38.086Z,15.77
2018-09-04T01:17:06.034Z,14.27
2018-09-04T01:19:33.756Z,15.93
2018-09-04T01:22:01.566Z,15.77
2018-09-04T01:24:29.315Z,14.13
2018-09-04T01:26:57.080Z,13.80
2018-09-04T01:29:24.848Z,13.57
2018-09-04T01:31:52.540Z,13.73
2018-09-04T01:34:20.351Z,14.87
2018-09-04T01:36:48.163Z,13.97
2018-09-04T01:39:15.854Z,15.13
2018-09-04T01:41:43.586Z,15.17
2018-09-04T01:44:11.354Z,16.53
2018-09-04T01:46:39.334Z,16.73
2018-09-04T01:49:07.114Z,19.17
2018-09-04T01:51:34.857Z,17.60
2018-09-04T01:54:02.578Z,20.13
2018-09-04T01:56:30.379Z,19.47
2018-09-04T01:58:58.140Z,19.50
2018-09-04T02:01:26.008Z,18.90
2018-09-04T02:03:53.803Z,18.50
2018-09-04T02:06:21.530Z,19.00
2018-09-04T02:08:49.274Z,20.50
2018-09-04T02:11:17.011Z,21.20
2018-09-04T02:13:44.684Z,21.33
2018-09-04T02:16:12.441Z,19.27
2018-09-04T02:18:40.215Z,19.17
2018-09-04T02:21:07.947Z,18.70
2018-09-04T02:23:35.656Z,21.10
2018-09-04T02:26:03.450Z,18.87
2018-09-04T02:28:31.193Z,19.57
2018-09-04T02:30:58.987Z,21.67
2018-09-04T02:33:26.769Z,19.90
2018-09-04T02:35:54.493Z,19.63
2018-09-04T02:38:22.118Z,19.17
2018-09-04T02:40:49.911Z,17.43
2018-09-04T02:43:17.666Z,17.00
2018-09-04T02:45:45.362Z,15.63
2018-09-04T02:48:13.126Z,15.90
2018-09-04T02:50:40.828Z,16.50
2018-09-04T02:53:08.610Z,18.77
2018-09-04T02:55:36.404Z,16.23
2018-09-04T02:58:04.193Z,14.53
2018-09-04T03:00:31.921Z,15.73
2018-09-04T03:02:59.665Z,16.10
2018-09-04T03:05:27.386Z,16.53
2018-09-04T03:07:55.186Z,16.83
2018-09-04T03:10:22.991Z,16.50
2018-09-04T03:12:50.803Z,17.23
2018-09-04T03:15:18.501Z,17.17
2018-09-04T03:17:46.267Z,17.77
2018-09-04T03:20:13.910Z,16.03
2018-09-04T03:22:41.675Z,16.57
2018-09-04T03:25:09.455Z,15.97
2018-09-04T03:27:37.191Z,16.90
2018-09-04T03:30:05.030Z,16.50
2018-09-04T03:32:32.820Z,16.40
2018-09-04T03:35:00.606Z,15.23
2018-09-04T03:37:28.338Z,13.80
2018-09-04T03:39:56.075Z,14.43
2018-09-04T03:42:23.893Z,14.47
2018-09-04T03:44:51.691Z,13.33
2018-09-04T03:47:19.469Z,12.20
2018-09-04T03:49:47.161Z,11.83
2018-09-04T03:52:14.936Z,10.27
2018-09-04T03:54:42.802Z,13.10
2018-09-04T03:57:10.567Z,12.30
2018-09-04T03:59:38.291Z,11.70
2018-09-04T04:02:06.371Z,11.40
2018-09-04T04:04:34.075Z,10.80
2018-09-04T04:07:01.751Z,11.30
2018-09-04T04:09:29.554Z,10.87
2018-09-04T04:11:57.311Z,11.53
2018-09-04T04:14:25.078Z,11.43
2018-09-04T04:16:52.969Z,11.97
2018-09-04T04:19:20.729Z,10.27
2018-09-04T04:21:48.495Z,11.97
2018-09-04T04:24:16.283Z,10.80
2018-09-04T04:26:44.055Z,10.83
2018-09-04T04:29:11.884Z,10.00
2018-09-04T04:31:39.707Z,9.80
2018-09-04T04:34:07.439Z,10.47
2018-09-04T04:36:35.166Z,10.10
2018-09-04T04:39:03.283Z,9.83
2018-09-04T04:41:31.014Z,10.73
2018-09-04T04:43:58.835Z,8.50
2018-09-04T04:46:26.588Z,8.97
2018-09-04T04:48:54.286Z,8.03
2018-09-04T04:51:21.997Z,8.73
2018-09-04T04:53:49.753Z,7.87
2018-09-04T04:56:17.469Z,7.70
2018-09-04T04:58:45.176Z,7.53
2018-09-04T05:01:12.962Z,8.83
2018-09-04T05:03:40.704Z,10.40
2018-09-04T05:06:08.406Z,8.80
2018-09-04T05:08:36.211Z,9.80
2018-09-04T05:11:04.018Z,10.57
2018-09-04T05:13:31.657Z,12.10
2018-09-04T05:15:59.445Z,12.07
2018-09-04T05:18:27.154Z,13.10
2018-09-04T05:20:55.005Z,13.73
2018-09-04T05:23:22.859Z,14.50
2018-09-04T05:25:50.638Z,14.03
2018-09-04T05:28:18.362Z,14.93
2018-09-04T05:30:46.126Z,14.33
2018-09-04T05:33:16.634Z,14.53
2018-09-04T05:35:46.739Z,14.13
2018-09-04T05:38:14.458Z,13.00
2018-09-04T05:40:42.449Z,13.83
2018-09-04T05:43:12.697Z,11.60
2018-09-04T05:45:40.953Z,12.33
2018-09-04T05:48:10.621Z,13.83
2018-09-04T05:50:38.500Z,14.23
2018-09-04T05:53:06.392Z,14.03
2018-09-04T05:55:34.053Z,14.10
2018-09-04T05:58:02.263Z,14.23
2018-09-04T06:00:33.383Z,14.13
2018-09-04T06:03:01.202Z,14.03
2018-09-04T06:05:28.914Z,14.07
2018-09-04T06:07:56.654Z,13.73
2018-09-04T06:10:24.341Z,12.10
2018-09-04T06:12:52.043Z,13.13
2018-09-04T06:15:19.805Z,12.33
2018-09-04T06:17:52.870Z,11.77
2018-09-04T06:20:20.612Z,11.60
2018-09-04T06:22:48.381Z,11.27
2018-09-04T06:25:16.203Z,10.77
2018-09-04T06:27:43.944Z,11.07
2018-09-04T06:30:11.709Z,10.23
2018-09-04T06:32:39.433Z,10.37
2018-09-04T06:35:07.214Z,10.33
2018-09-04T06:37:34.998Z,10.47
2018-09-04T06:40:02.876Z,9.87
2018-09-04T06:42:30.604Z,9.23
2018-09-04T06:44:58.339Z,10.23
2018-09-04T06:47:26.058Z,9.20
2018-09-04T06:49:53.921Z,9.53
2018-09-04T06:52:21.617Z,8.50
2018-09-04T06:54:49.373Z,9.77
2018-09-04T06:57:17.144Z,9.40
2018-09-04T06:59:44.821Z,8.97
2018-09-04T07:02:12.622Z,9.23
2018-09-04T07:04:40.330Z,9.27
2018-09-04T07:07:08.376Z,10.13
2018-09-04T07:09:36.148Z,9.30
2018-09-04T07:12:03.910Z,10.47
2018-09-04T07:14:31.788Z,9.20
2018-09-04T07:16:59.660Z,9.77
2018-09-04T07:19:27.427Z,9.07
2018-09-04T07:21:55.149Z,9.23
2018-09-04T07:24:22.907Z,8.33
2018-09-04T07:26:50.679Z,8.77
2018-09-04T07:29:18.488Z,8.93
2018-09-04T07:31:46.356Z,9.10
2018-09-04T07:34:14.045Z,9.07
2018-09-04T07:36:41.784Z,8.83
2018-09-04T07:39:10.722Z,8.47
2018-09-04T07:41:38.894Z,8.57
2018-09-04T07:44:06.939Z,7.67
2018-09-04T07:46:34.781Z,8.60
2018-09-04T07:49:02.680Z,8.47
2018-09-04T07:51:30.575Z,8.57
2018-09-04T07:53:58.416Z,9.00
2018-09-04T07:56:26.229Z,8.87
2018-09-04T07:58:53.973Z,8.03
2018-09-04T08:01:21.896Z,8.10
2018-09-04T08:03:49.772Z,8.67
2018-09-04T08:06:17.526Z,7.90
2018-09-04T08:08:46.270Z,8.43
2018-09-04T08:11:14.131Z,7.90
2018-09-04T08:13:41.985Z,8.70
2018-09-04T08:16:09.851Z,8.17
2018-09-04T08:18:38.017Z,7.90
2018-09-04T08:21:06.069Z,8.60
2018-09-04T08:23:34.754Z,7.40
2018-09-04T08:26:02.477Z,7.60
2018-09-04T08:28:30.199Z,8.20
2018-09-04T08:30:58.024Z,7.87
2018-09-04T08:33:25.824Z,7.57
2018-09-04T08:35:53.713Z,8.17
2018-09-04T08:38:21.474Z,8.10
2018-09-04T08:40:49.198Z,7.87
2018-09-04T08:43:17.116Z,8.13
2018-09-04T08:45:44.816Z,8.43
2018-09-04T08:48:18.024Z,8.50
2018-09-04T08:50:45.946Z,7.37
2018-09-04T08:53:14.090Z,7.93
2018-09-04T08:55:41.779Z,7.90
2018-09-04T08:58:09.666Z,8.30
2018-09-04T09:00:37.505Z,7.80
2018-09-04T09:03:05.491Z,7.77
2018-09-04T09:05:33.430Z,7.97
2018-09-04T09:08:01.212Z,8.20
2018-09-04T09:10:29.057Z,8.87
2018-09-04T09:12:56.848Z,8.10
2018-09-04T09:15:24.629Z,8.60
2018-09-04T09:17:52.428Z,8.00
2018-09-04T09:20:20.232Z,8.60
2018-09-04T09:22:48.035Z,7.97
2018-09-04T09:25:15.706Z,7.90
2018-09-04T09:27:43.620Z,8.00
2018-09-04T09:30:12.100Z,8.77
2018-09-04T09:32:39.814Z,7.50
2018-09-04T09:35:07.615Z,7.53
2018-09-04T09:37:35.422Z,7.90
2018-09-04T09:40:03.405Z,7.43
2018-09-04T09:42:31.278Z,7.77
2018-09-04T09:44:59.018Z,7.30
2018-09-04T09:47:26.846Z,7.20
2018-09-04T09:49:54.589Z,7.60
2018-09-04T09:52:22.354Z,8.30
2018-09-04T09:54:50.086Z,8.20
2018-09-04T09:57:17.934Z,8.33
2018-09-04T09:59:45.739Z,7.57
2018-09-04T10:02:18.269Z,7.23
2018-09-04T10:04:46.105Z,7.90
2018-09-04T10:07:13.796Z,7.83
2018-09-04T10:09:41.702Z,8.40
2018-09-04T10:12:09.567Z,8.13
2018-09-04T10:14:37.426Z,8.43
2018-09-04T10:17:05.317Z,7.97
2018-09-04T10:19:33.154Z,8.03
2018-09-04T10:22:01.140Z,7.73
2018-09-04T10:24:29.015Z,8.43
2018-09-04T10:26:56.915Z,7.20
2018-09-04T10:29:24.854Z,7.70
2018-09-04T10:31:52.608Z,7.33
2018-09-04T10:34:20.341Z,7.23
2018-09-04T10:36:48.137Z,7.80
2018-09-04T10:39:21.605Z,8.50
2018-09-04T10:41:49.290Z,7.20
2018-09-04T10:44:17.059Z,7.43
2018-09-04T10:46:45.286Z,7.17
2018-09-04T10:49:13.027Z,6.87
2018-09-04T10:51:40.730Z,6.53
2018-09-04T10:54:08.573Z,7.70
2018-09-04T10:56:36.362Z,6.80
2018-09-04T10:59:04.095Z,7.03
2018-09-04T11:01:31.834Z,6.20
2018-09-04T11:03:59.614Z,6.50
2018-09-04T11:06:27.285Z,6.60
2018-09-04T11:08:55.030Z,7.00
2018-09-04T11:11:22.715Z,6.63
2018-09-04T11:13:50.415Z,6.80
2018-09-04T11:16:18.175Z,7.33
2018-09-04T11:18:45.865Z,6.87
2018-09-04T11:21:13.646Z,6.90
2018-09-04T11:23:41.402Z,7.00
2018-09-04T11:26:09.037Z,7.60
2018-09-04T11:28:40.323Z,7.13
2018-09-04T11:31:08.038Z,6.90
2018-09-04T11:33:35.781Z,6.90
2018-09-04T11:36:03.453Z,6.63
2018-09-04T11:38:31.181Z,7.17
2018-09-04T11:40:58.915Z,6.90
2018-09-04T11:43:26.647Z,6.87
2018-09-04T11:45:54.362Z,6.20
2018-09-04T11:48:22.051Z,6.63
2018-09-04T11:50:49.724Z,6.70
2018-09-04T11:53:17.439Z,6.57
2018-09-04T11:55:45.260Z,6.80
2018-09-04T11:58:12.922Z,6.53
2018-09-04T12:00:43.713Z,6.17
2018-09-04T12:03:13.056Z,6.20
2018-09-04T12:05:40.975Z,7.40
2018-09-04T12:08:09.018Z,6.40
2018-09-04T12:10:36.964Z,6.57
2018-09-04T12:13:05.144Z,6.30
2018-09-04T12:15:32.997Z,6.40
2018-09-04T12:18:00.810Z,6.17
2018-09-04T12:20:34.686Z,6.53
2018-09-04T12:23:02.468Z,6.00
2018-09-04T12:25:30.364Z,5.87
2018-09-04T12:27:58.106Z,5.87
2018-09-04T12:30:25.816Z,6.33
2018-09-04T12:32:53.540Z,6.23
2018-09-04T12:35:21.488Z,6.00
2018-09-04T12:37:49.278Z,5.97
2018-09-04T12:40:17.087Z,5.87
2018-09-04T12:42:45.297Z,6.37
2018-09-04T12:45:13.074Z,6.17
2018-09-04T12:47:40.838Z,6.07
2018-09-04T12:50:08.642Z,6.47
2018-09-04T12:52:36.329Z,6.00
2018-09-04T12:55:04.249Z,5.90
2018-09-04T12:57:32.185Z,5.77
2018-09-04T12:59:59.988Z,5.93
2018-09-04T13:02:27.741Z,6.37
2018-09-04T13:04:55.469Z,5.77
2018-09-04T13:07:23.183Z,6.83
2018-09-04T13:09:50.887Z,6.33
2018-09-04T13:12:18.622Z,6.10
2018-09-04T13:14:46.414Z,5.90
2018-09-04T13:17:14.093Z,6.60
2018-09-04T13:19:41.918Z,5.67
2018-09-04T13:22:09.669Z,5.87
2018-09-04T13:24:37.383Z,6.30
2018-09-04T13:27:05.117Z,5.77
2018-09-04T13:29:32.811Z,6.10
2018-09-04T13:32:00.632Z,6.07
2018-09-04T13:34:28.424Z,6.30
2018-09-04T13:36:56.133Z,5.50
2018-09-04T13:39:23.826Z,5.93
2018-09-04T13:41:51.539Z,5.77
2018-09-04T13:44:19.268Z,5.87
2018-09-04T13:46:46.950Z,5.50
2018-09-04T13:49:14.694Z,5.83
2018-09-04T13:51:42.399Z,6.17
2018-09-04T13:54:10.176Z,6.10
2018-09-04T13:56:37.884Z,7.10
2018-09-04T13:59:05.698Z,6.43
2018-09-04T14:01:33.432Z,6.03
2018-09-04T14:04:01.423Z,6.30
2018-09-04T14:06:30.061Z,6.40
2018-09-04T14:08:57.836Z,6.30
2018-09-04T14:11:25.534Z,5.77
2018-09-04T14:13:53.213Z,6.10
2018-09-04T14:16:23.059Z,5.97
2018-09-04T14:18:51.013Z,6.53
2018-09-04T14:21:18.723Z,6.30
2018-09-04T14:23:46.491Z,5.17
2018-09-04T14:26:14.236Z,6.07
2018-09-04T14:28:41.969Z,6.10
2018-09-04T14:31:09.702Z,6.57
2018-09-04T14:33:37.501Z,5.63
2018-09-04T14:36:05.286Z,6.33
2018-09-04T14:38:32.917Z,6.70
2018-09-04T14:41:00.710Z,6.07
2018-09-04T14:43:28.459Z,6.67
2018-09-04T14:45:56.199Z,5.63
2018-09-04T14:48:24.841Z,6.37
2018-09-04T14:50:52.890Z,6.63
2018-09-04T14:53:20.614Z,6.20
2018-09-04T14:55:48.366Z,6.80
2018-09-04T14:58:16.290Z,6.53
2018-09-04T15:00:44.018Z,6.50
2018-09-04T15:03:11.787Z,6.20
2018-09-04T15:05:39.494Z,6.60
2018-09-04T15:08:07.165Z,6.30
2018-09-04T15:10:34.921Z,6.27
2018-09-04T15:13:02.691Z,6.23
2018-09-04T15:15:30.471Z,6.37
2018-09-04T15:17:58.239Z,6.53
2018-09-04T15:20:25.953Z,6.47
2018-09-04T15:22:54.424Z,6.00
2018-09-04T15:25:22.275Z,6.73
2018-09-04T15:27:49.964Z,7.03
2018-09-04T15:30:17.725Z,6.50
2018-09-04T15:32:45.606Z,6.93
2018-09-04T15:35:13.327Z,7.00
2018-09-04T15:37:41.050Z,7.03
2018-09-04T15:40:08.822Z,6.40
2018-09-04T15:42:36.609Z,6.83
2018-09-04T15:45:04.453Z,6.60
2018-09-04T15:47:32.194Z,6.87
2018-09-04T15:49:59.868Z,7.10
2018-09-04T15:52:27.561Z,7.53
2018-09-04T15:54:55.394Z,6.73
2018-09-04T15:57:23.116Z,7.27
2018-09-04T15:59:50.798Z,6.67
2018-09-04T16:02:18.513Z,6.90
2018-09-04T16:04:46.241Z,6.67
2018-09-04T16:07:13.945Z,7.47
2018-09-04T16:09:41.693Z,7.73
2018-09-04T16:12:09.418Z,6.77
2018-09-04T16:14:37.125Z,7.23
2018-09-04T16:17:04.907Z,6.50
2018-09-04T16:19:32.632Z,6.70
2018-09-04T16:22:00.510Z,6.90
2018-09-04T16:24:28.274Z,7.03
2018-09-04T16:26:55.958Z,7.30
2018-09-04T16:29:23.700Z,7.13
2018-09-04T16:31:51.448Z,6.73
2018-09-04T16:34:19.237Z,7.27
2018-09-04T16:36:46.901Z,7.43
2018-09-04T16:39:14.669Z,7.80
2018-09-04T16:41:42.420Z,7.57
2018-09-04T16:44:10.134Z,8.27
2018-09-04T16:46:37.901Z,7.00
2018-09-04T16:49:05.653Z,7.40
2018-09-04T16:51:33.338Z,7.10
2018-09-04T16:54:01.059Z,7.47
2018-09-04T16:56:28.790Z,8.07
2018-09-04T16:58:56.513Z,7.40
2018-09-04T17:01:24.386Z,7.27
2018-09-04T17:03:52.089Z,7.50
2018-09-04T17:06:19.809Z,7.37
2018-09-04T17:08:47.664Z,7.47
2018-09-04T17:11:15.425Z,7.90
2018-09-04T17:13:43.112Z,8.40
2018-09-04T17:16:10.865Z,8.30
2018-09-04T17:18:38.575Z,8.10
2018-09-04T17:21:06.337Z,8.07
2018-09-04T17:23:34.100Z,8.10
2018-09-04T17:26:01.906Z,8.43
2018-09-04T17:28:29.627Z,7.30
2018-09-04T17:30:57.528Z,7.63
2018-09-04T17:33:25.222Z,8.20
2018-09-04T17:35:53.064Z,7.13
2018-09-04T17:38:20.847Z,7.07
2018-09-04T17:40:48.525Z,7.43
2018-09-04T17:43:16.223Z,7.20
2018-09-04T17:45:44.041Z,8.10
2018-09-04T17:48:11.849Z,7.37
2018-09-04T17:50:39.557Z,8.43
2018-09-04T17:53:07.328Z,6.90
2018-09-04T17:55:35.010Z,7.67
2018-09-04T17:58:02.719Z,7.43
2018-09-04T18:00:30.481Z,8.03
2018-09-04T18:02:58.309Z,7.63
2018-09-04T18:05:26.029Z,7.40
2018-09-04T18:07:53.777Z,8.03
2018-09-04T18:10:21.517Z,7.60
2018-09-04T18:12:49.210Z,8.03
2018-09-04T18:15:16.925Z,9.67
2018-09-04T18:17:44.616Z,7.30
2018-09-04T18:20:12.334Z,7.10
2018-09-04T18:22:40.327Z,7.77
2018-09-04T18:25:08.100Z,7.23
2018-09-04T18:27:35.837Z,7.17
2018-09-04T18:30:03.688Z,7.33
2018-09-04T18:32:31.383Z,6.90
2018-09-04T18:34:59.156Z,7.40
2018-09-04T18:37:26.907Z,6.60
2018-09-04T18:39:54.976Z,6.60
2018-09-04T18:42:23.008Z,7.10
2018-09-04T18:44:50.784Z,7.40
2018-09-04T18:47:18.488Z,7.17
2018-09-04T18:49:46.201Z,7.03
2018-09-04T18:52:13.894Z,7.43
2018-09-04T18:54:41.649Z,7.10
2018-09-04T18:57:09.417Z,6.80
2018-09-04T18:59:37.247Z,7.20
2018-09-04T19:02:05.050Z,6.83
2018-09-04T19:04:32.801Z,6.93
2018-09-04T19:07:00.774Z,6.93
2018-09-04T19:09:28.476Z,6.80
2018-09-04T19:11:56.180Z,7.77
2018-09-04T19:14:23.942Z,7.40
2018-09-04T19:16:51.680Z,7.10
2018-09-04T19:19:19.369Z,7.10
2018-09-04T19:21:47.109Z,6.60
2018-09-04T19:24:15.611Z,6.80
2018-09-04T19:26:43.341Z,7.10
2018-09-04T19:29:11.116Z,6.83
2018-09-04T19:31:38.805Z,6.77
2018-09-04T19:34:06.504Z,6.90
2018-09-04T19:36:34.241Z,7.00
2018-09-04T19:39:01.954Z,7.20
2018-09-04T19:41:29.633Z,6.63
2018-09-04T19:43:57.360Z,6.93
2018-09-04T19:46:25.017Z,6.93
2018-09-04T19:48:52.728Z,6.80
2018-09-04T19:51:20.463Z,6.60
2018-09-04T19:53:48.148Z,6.77
2018-09-04T19:56:15.950Z,6.97
2018-09-04T19:58:43.707Z,7.07
2018-09-04T20:01:11.518Z,6.67
2018-09-04T20:03:39.225Z,7.07
2018-09-04T20:06:06.981Z,7.00
2018-09-04T20:08:34.669Z,7.13
2018-09-04T20:11:02.374Z,7.43
2018-09-04T20:13:30.149Z,7.13
2018-09-04T20:15:57.891Z,7.73
2018-09-04T20:18:25.596Z,7.40
2018-09-04T20:20:53.324Z,7.67
2018-09-04T20:23:21.017Z,8.03
2018-09-04T20:25:48.728Z,7.13
2018-09-04T20:28:16.408Z,8.17
2018-09-04T20:30:44.218Z,7.97
2018-09-04T20:33:11.948Z,7.77
2018-09-04T20:35:39.689Z,7.80
2018-09-04T20:38:07.431Z,7.33
2018-09-04T20:40:35.220Z,6.80
2018-09-04T20:43:02.935Z,7.23
2018-09-04T20:45:30.671Z,6.97
2018-09-04T20:47:58.415Z,7.50
2018-09-04T20:50:26.315Z,7.47
2018-09-04T20:52:54.405Z,7.40
2018-09-04T20:55:22.118Z,7.67
2018-09-04T20:58:00.949Z,7.20
2018-09-04T21:00:39.941Z,6.97
2018-09-04T21:03:18.941Z,7.80
2018-09-04T21:05:57.982Z,7.50
2018-09-04T21:08:43.528Z,7.70
2018-09-04T21:11:11.325Z,7.30
2018-09-04T21:13:39.083Z,6.93
2018-09-04T21:16:06.895Z,7.27
2018-09-04T21:18:34.684Z,7.03
2018-09-04T21:21:02.464Z,7.70
2018-09-04T21:23:30.327Z,7.67
2018-09-04T21:25:58.192Z,7.53
2018-09-04T21:28:25.972Z,7.73
2018-09-04T21:30:53.819Z,7.70
2018-09-04T21:38:50.365Z,7.87
2018-09-04T21:41:18.229Z,7.57
2018-09-04T21:43:45.902Z,7.77
2018-09-04T21:46:13.646Z,8.07
2018-09-04T21:48:41.494Z,7.80
2018-09-04T21:51:09.231Z,8.60
2018-09-04T21:53:37.074Z,7.93
2018-09-04T21:56:04.841Z,7.80
2018-09-04T21:58:32.517Z,8.13
2018-09-04T22:01:00.390Z,7.87
2018-09-04T22:03:28.200Z,7.77
2018-09-04T22:05:56.063Z,7.80
2018-09-04T22:08:23.882Z,7.03
2018-09-04T22:10:51.599Z,7.10
2018-09-04T22:13:19.395Z,7.47
2018-09-04T22:15:47.262Z,7.40
2018-09-04T22:18:14.977Z,7.17
2018-09-04T22:20:42.653Z,7.23
2018-09-04T22:23:10.399Z,7.63
2018-09-04T22:25:38.130Z,7.43
2018-09-04T22:28:05.948Z,7.20
2018-09-04T22:30:33.823Z,6.93
2018-09-04T22:33:01.573Z,7.83
2018-09-04T22:35:29.347Z,8.10
2018-09-04T22:37:57.089Z,7.50
2018-09-04T22:40:24.821Z,7.00
2018-09-04T22:42:52.566Z,7.20
2018-09-04T22:45:20.418Z,7.37
2018-09-04T22:47:48.180Z,6.80
2018-09-04T22:50:21.393Z,7.50
2018-09-04T22:52:49.119Z,7.30
2018-09-04T22:55:16.850Z,7.50
2018-09-04T22:57:44.730Z,7.30
2018-09-04T23:00:13.632Z,7.53
2018-09-04T23:02:41.340Z,7.10
2018-09-04T23:05:09.130Z,7.27
2018-09-04T23:07:36.859Z,7.93
2018-09-04T23:10:04.859Z,7.40
2018-09-04T23:12:32.634Z,7.00
2018-09-04T23:15:00.386Z,6.93
2018-09-04T23:17:28.205Z,6.67
2018-09-04T23:19:56.150Z,6.87
2018-09-04T23:22:23.930Z,7.37
2018-09-04T23:24:51.659Z,7.40
2018-09-04T23:27:19.439Z,7.10
2018-09-04T23:29:47.226Z,7.27
2018-09-04T23:32:14.933Z,6.90
2018-09-04T23:34:42.720Z,6.97
2018-09-04T23:37:10.543Z,7.57
2018-09-04T23:39:38.265Z,7.43
2018-09-04T23:42:06.058Z,7.70
2018-09-04T23:44:33.822Z,7.40
2018-09-04T23:47:01.883Z,7.53
2018-09-04T23:49:29.762Z,7.50
2018-09-04T23:51:57.610Z,7.77
2018-09-04T23:54:25.814Z,7.13
2018-09-04T23:56:53.726Z,7.27
2018-09-04T23:59:21.489Z,7.53
